createdAt,value
2018-07-01T00:01:03.649Z,20.60
2018-07-01T00:06:07.064Z,20.50
2018-07-01T00:11:10.506Z,20.40
2018-07-01T00:16:14.212Z,20.20
2018-07-01T00:21:17.668Z,20.10
2018-07-01T00:26:21.079Z,20.00
2018-07-01T00:31:24.455Z,19.90
2018-07-01T00:36:27.924Z,19.90
2018-07-01T00:41:31.339Z,19.80
2018-07-01T00:46:35.219Z,19.80
2018-07-01T00:51:38.642Z,19.80
2018-07-01T01:01:45.172Z,19.60
2018-07-01T01:06:48.555Z,19.50
2018-07-01T01:11:52.016Z,19.40
2018-07-01T01:16:55.478Z,19.30
2018-07-01T01:21:58.867Z,19.10
2018-07-01T01:27:02.265Z,19.10
2018-07-01T01:32:05.725Z,18.90
2018-07-01T01:37:09.128Z,18.80
2018-07-01T01:42:18.681Z,18.80
2018-07-01T01:47:28.189Z,18.70
2018-07-01T01:52:36.983Z,18.70
2018-07-01T01:57:48.673Z,18.60
2018-07-01T02:02:57.472Z,18.50
2018-07-01T02:08:05.283Z,18.40
2018-07-01T02:13:08.734Z,18.30
2018-07-01T02:18:12.213Z,18.20
2018-07-01T02:23:23.621Z,18.20
2018-07-01T02:28:27.075Z,18.10
2018-07-01T02:33:30.454Z,18.00
2018-07-01T02:38:33.896Z,17.80
2018-07-01T02:43:37.457Z,17.70
2018-07-01T02:48:41.046Z,17.80
2018-07-01T02:53:44.515Z,17.70
2018-07-01T02:58:47.924Z,17.60
2018-07-01T03:03:51.372Z,17.50
2018-07-01T03:08:54.772Z,17.40
2018-07-01T03:13:58.149Z,17.30
2018-07-01T03:19:02.684Z,17.30
2018-07-01T03:24:06.515Z,17.20
2018-07-01T03:29:09.915Z,17.20
2018-07-01T03:34:13.417Z,17.20
2018-07-01T03:39:16.805Z,17.10
2018-07-01T03:44:20.179Z,17.10
2018-07-01T03:49:23.567Z,17.10
2018-07-01T03:54:26.956Z,17.10
2018-07-01T03:59:30.317Z,17.00
2018-07-01T04:04:33.709Z,17.00
2018-07-01T04:09:37.070Z,16.90
2018-07-01T04:14:40.439Z,16.90
2018-07-01T04:19:43.833Z,16.80
2018-07-01T04:24:47.198Z,16.80
2018-07-01T04:29:50.648Z,16.80
2018-07-01T04:34:54.028Z,16.90
2018-07-01T04:39:57.394Z,16.90
2018-07-01T04:45:00.787Z,16.90
2018-07-01T04:50:04.641Z,17.00
2018-07-01T04:55:08.125Z,17.10
2018-07-01T05:00:11.604Z,17.20
2018-07-01T05:05:14.978Z,17.20
2018-07-01T05:10:18.370Z,17.40
2018-07-01T05:15:21.948Z,17.40
2018-07-01T05:20:25.348Z,17.50
2018-07-01T05:25:28.719Z,17.60
2018-07-01T05:30:32.141Z,17.70
2018-07-01T05:35:35.566Z,17.80
2018-07-01T05:40:38.968Z,18.00
2018-07-01T05:45:42.344Z,18.10
2018-07-01T05:50:45.741Z,18.20
2018-07-01T05:55:49.186Z,18.40
2018-07-01T06:00:52.575Z,18.50
2018-07-01T06:05:55.990Z,18.70
2018-07-01T06:10:59.386Z,18.80
2018-07-01T06:16:02.789Z,19.10
2018-07-01T06:21:06.278Z,19.30
2018-07-01T06:26:09.678Z,19.60
2018-07-01T06:31:13.060Z,19.90
2018-07-01T06:36:16.499Z,20.20
2018-07-01T06:41:19.912Z,20.50
2018-07-01T06:46:23.290Z,20.70
2018-07-01T06:51:26.745Z,21.00
2018-07-01T06:56:30.181Z,21.30
2018-07-01T07:01:33.519Z,21.60
2018-07-01T07:06:36.963Z,21.90
2018-07-01T07:11:40.425Z,22.10
2018-07-01T07:16:43.930Z,22.40
2018-07-01T07:21:47.307Z,22.60
2018-07-01T07:26:50.892Z,22.80
2018-07-01T07:31:54.301Z,23.00
2018-07-01T07:36:57.705Z,23.10
2018-07-01T07:42:01.127Z,23.40
2018-07-01T07:47:04.628Z,23.40
2018-07-01T07:57:11.174Z,23.70
2018-07-01T08:02:14.548Z,23.80
2018-07-01T08:07:17.967Z,23.90
2018-07-01T08:12:21.390Z,24.10
2018-07-01T08:17:24.892Z,24.20
2018-07-01T08:22:28.271Z,24.30
2018-07-01T08:27:31.673Z,24.40
2018-07-01T08:32:35.095Z,24.30
2018-07-01T08:37:38.472Z,24.30
2018-07-01T08:47:44.948Z,24.20
2018-07-01T08:52:48.420Z,24.20
2018-07-01T08:57:51.727Z,24.30
2018-07-01T09:02:55.111Z,24.50
2018-07-01T09:07:58.492Z,24.70
2018-07-01T09:13:01.926Z,24.90
2018-07-01T09:18:05.409Z,25.10
2018-07-01T09:23:08.809Z,25.30
2018-07-01T09:28:12.200Z,25.40
2018-07-01T09:33:15.629Z,25.50
2018-07-01T09:38:19.069Z,25.60
2018-07-01T09:43:22.482Z,25.80
2018-07-01T09:48:25.843Z,26.10
2018-07-01T09:53:29.200Z,26.30
2018-07-01T09:58:32.613Z,26.60
2018-07-01T10:03:36.035Z,26.80
2018-07-01T10:08:39.437Z,27.00
2018-07-01T10:13:42.925Z,27.00
2018-07-01T10:18:46.476Z,27.10
2018-07-01T10:23:49.809Z,27.10
2018-07-01T10:29:02.115Z,27.10
2018-07-01T10:34:06.276Z,27.10
2018-07-01T10:39:13.888Z,27.20
2018-07-01T10:44:17.361Z,27.40
2018-07-01T10:54:23.933Z,27.60
2018-07-01T10:59:27.412Z,27.70
2018-07-01T11:04:30.836Z,27.90
2018-07-01T11:09:34.267Z,27.90
2018-07-01T11:14:37.679Z,28.00
2018-07-01T11:19:41.164Z,28.10
2018-07-01T11:24:44.582Z,28.30
2018-07-01T11:29:48.007Z,28.50
2018-07-01T11:34:51.437Z,28.80
2018-07-01T11:39:54.842Z,28.90
2018-07-01T11:44:58.278Z,29.10
2018-07-01T11:50:01.800Z,29.20
2018-07-01T11:55:05.613Z,29.40
2018-07-01T12:00:09.921Z,29.50
2018-07-01T12:05:16.660Z,29.70
2018-07-01T12:10:17.765Z,29.80
2018-07-01T12:15:21.267Z,29.90
2018-07-01T12:20:24.863Z,29.90
2018-07-01T12:25:28.430Z,30.00
2018-07-01T12:30:31.979Z,30.10
2018-07-01T12:35:35.444Z,30.20
2018-07-01T12:40:38.919Z,30.40
2018-07-01T12:45:42.381Z,30.60
2018-07-01T12:50:45.888Z,30.80
2018-07-01T12:55:49.846Z,30.80
2018-07-01T13:00:53.356Z,30.80
2018-07-01T13:05:56.881Z,30.70
2018-07-01T13:11:00.342Z,30.80
2018-07-01T13:16:03.848Z,30.80
2018-07-01T13:21:07.301Z,30.80
2018-07-01T13:26:10.946Z,31.00
2018-07-01T13:31:14.654Z,31.10
2018-07-01T13:36:18.236Z,31.20
2018-07-01T13:41:21.786Z,31.30
2018-07-01T13:46:25.340Z,31.50
2018-07-01T13:51:29.251Z,31.60
2018-07-01T13:56:32.950Z,31.70
2018-07-01T14:01:36.588Z,31.80
2018-07-01T14:06:40.233Z,31.90
2018-07-01T14:11:43.917Z,31.90
2018-07-01T14:16:47.543Z,31.90
2018-07-01T14:21:51.092Z,32.00
2018-07-01T14:26:54.687Z,32.00
2018-07-01T14:31:58.209Z,31.80
2018-07-01T14:37:01.791Z,31.70
2018-07-01T14:47:08.953Z,31.90
2018-07-01T14:52:12.682Z,31.90
2018-07-01T14:57:16.323Z,32.00
2018-07-01T15:02:19.997Z,32.10
2018-07-01T15:07:23.693Z,32.20
2018-07-01T15:12:27.452Z,32.30
2018-07-01T15:17:31.099Z,32.30
2018-07-01T15:22:34.889Z,32.00
2018-07-01T15:27:38.630Z,31.80
2018-07-01T15:32:42.426Z,31.80
2018-07-01T15:37:46.241Z,31.80
2018-07-01T15:42:49.908Z,31.90
2018-07-01T15:47:53.572Z,32.00
2018-07-01T15:52:58.591Z,32.10
2018-07-01T15:58:02.296Z,31.90
2018-07-01T16:03:06.097Z,31.80
2018-07-01T16:08:10.009Z,31.70
2018-07-01T16:13:13.845Z,31.70
2018-07-01T16:18:17.852Z,31.70
2018-07-01T16:23:21.502Z,31.60
2018-07-01T16:28:31.360Z,31.60
2018-07-01T16:33:34.965Z,31.40
2018-07-01T16:38:38.629Z,31.00
2018-07-01T16:43:42.341Z,30.90
2018-07-01T16:48:46.052Z,30.90
2018-07-01T16:53:49.653Z,30.90
2018-07-01T16:58:53.293Z,30.80
2018-07-01T17:03:56.972Z,30.80
2018-07-01T17:09:00.619Z,30.80
2018-07-01T17:19:07.477Z,30.80
2018-07-01T17:24:11.026Z,30.80
2018-07-01T17:29:14.709Z,30.80
2018-07-01T17:34:18.413Z,30.80
2018-07-01T17:39:22.089Z,30.80
2018-07-01T17:44:25.702Z,30.80
2018-07-01T17:49:29.238Z,30.70
2018-07-01T17:54:32.877Z,30.60
2018-07-01T17:59:36.499Z,30.50
2018-07-01T18:04:40.006Z,30.50
2018-07-01T18:09:43.585Z,30.30
2018-07-01T18:14:47.146Z,30.20
2018-07-01T18:19:50.778Z,30.00
2018-07-01T18:25:04.495Z,29.90
2018-07-01T18:29:57.884Z,29.60
2018-07-01T18:35:01.440Z,29.50
2018-07-01T18:40:05.291Z,29.20
2018-07-01T18:45:08.757Z,29.00
2018-07-01T18:50:12.245Z,28.80
2018-07-01T18:55:15.661Z,28.60
2018-07-01T19:00:19.115Z,28.40
2018-07-01T19:05:22.560Z,28.20
2018-07-01T19:10:26.057Z,28.00
2018-07-01T19:15:29.537Z,27.80
2018-07-01T19:20:33.003Z,27.70
2018-07-01T19:25:36.458Z,27.50
2018-07-01T19:30:39.901Z,27.30
2018-07-01T19:35:43.660Z,27.20
2018-07-01T19:40:47.097Z,27.00
2018-07-01T19:45:50.574Z,26.80
2018-07-01T19:50:54.095Z,26.60
2018-07-01T19:55:57.635Z,26.40
2018-07-01T20:01:01.164Z,26.30
2018-07-01T20:06:04.848Z,26.20
2018-07-01T20:11:08.404Z,26.00
2018-07-01T20:16:12.030Z,25.80
2018-07-01T20:21:15.769Z,25.60
2018-07-01T20:26:19.490Z,25.50
2018-07-01T20:31:23.076Z,25.40
2018-07-01T20:36:26.556Z,25.20
2018-07-01T20:41:29.977Z,25.10
2018-07-01T20:46:33.452Z,24.80
2018-07-01T20:51:36.911Z,24.60
2018-07-01T20:56:40.322Z,24.40
2018-07-01T21:01:43.796Z,24.20
2018-07-01T21:06:47.227Z,24.10
2018-07-01T21:11:50.836Z,24.00
2018-07-01T21:16:54.288Z,23.80
2018-07-01T21:21:57.764Z,23.70
2018-07-01T21:27:01.232Z,23.50
2018-07-01T21:32:04.663Z,23.30
2018-07-01T21:37:08.103Z,23.20
2018-07-01T21:42:11.544Z,23.00
2018-07-01T21:47:14.996Z,22.90
2018-07-01T21:52:18.496Z,22.70
2018-07-01T21:57:21.935Z,22.60
2018-07-01T22:02:25.395Z,22.50
2018-07-01T22:07:28.816Z,22.30
2018-07-01T22:12:43.477Z,22.20
2018-07-01T22:17:46.904Z,22.10
2018-07-01T22:22:50.351Z,21.90
2018-07-01T22:27:53.772Z,21.80
2018-07-01T22:32:57.212Z,21.80
2018-07-01T22:38:00.653Z,21.70
2018-07-01T22:43:04.372Z,21.60
2018-07-01T22:48:07.852Z,21.50
2018-07-01T22:53:11.700Z,21.40
2018-07-01T22:58:15.276Z,21.30
2018-07-01T23:03:20.338Z,21.20
2018-07-01T23:08:23.744Z,21.00
2018-07-01T23:13:27.180Z,21.00
2018-07-01T23:18:30.595Z,20.90
2018-07-01T23:23:34.054Z,20.70
2018-07-01T23:28:37.542Z,20.60
2018-07-01T23:33:40.939Z,20.30
2018-07-01T23:38:44.351Z,20.20
2018-07-01T23:43:47.792Z,20.00
2018-07-01T23:48:51.216Z,19.90
2018-07-01T23:53:54.685Z,19.70
2018-07-01T23:58:58.092Z,19.60
